Time;durP1;ratioP1;P1;durP2;ratioP2;P2;SDS_P1;SDS_P2;PMS_P1;PMS_P2;Temp;Humidity;BMP_temperature;BMP_pressure;BME280_temperature;BME280_humidity;BME280_pressure;Samples;Min_cycle;Max_cycle;Signal;HPM_P1;HPM_P2
2023/12/15 00:00:16;;;;;;;73.63;29.52;;;;;;;;;;5034632;28;20041;-75
2023/12/15 00:02:45;;;;;;;71.40;27.30;;;;;;;;;;5048849;28;20376;-76
2023/12/15 00:05:11;;;;;;;71.20;27.40;;;;;;;;;;5039191;28;20048;-76
2023/12/15 00:07:37;;;;;;;73.68;28.27;;;;;;;;;;5047677;28;20124;-75
2023/12/15 00:10:03;;;;;;;86.63;29.98;;;;;;;;;;5052413;28;20033;-75
2023/12/15 00:12:29;;;;;;;71.03;25.30;;;;;;;;;;5030197;28;20048;-78
2023/12/15 00:14:55;;;;;;;76.78;28.70;;;;;;;;;;5029389;28;20389;-75
2023/12/15 00:17:21;;;;;;;72.13;23.77;;;;;;;;;;5028148;28;20480;-75
2023/12/15 00:19:47;;;;;;;66.75;23.45;;;;;;;;;;5040553;28;20045;-75
2023/12/15 00:22:13;;;;;;;84.43;27.17;;;;;;;;;;5027759;28;20385;-75
2023/12/15 00:24:39;;;;;;;77.78;28.23;;;;;;;;;;5043263;28;20488;-75
2023/12/15 00:27:06;;;;;;;75.28;25.50;;;;;;;;;;5048547;28;20037;-76
2023/12/15 00:29:32;;;;;;;75.35;27.13;;;;;;;;;;5048227;28;20049;-76
2023/12/15 00:31:58;;;;;;;80.32;31.02;;;;;;;;;;5044998;28;20047;-76
2023/12/15 00:34:24;;;;;;;82.32;28.45;;;;;;;;;;5039643;28;20045;-76
2023/12/15 00:36:50;;;;;;;81.35;30.25;;;;;;;;;;5013028;28;20049;-79
2023/12/15 00:39:16;;;;;;;85.47;27.95;;;;;;;;;;5035974;28;20091;-83
2023/12/15 00:41:42;;;;;;;86.40;29.48;;;;;;;;;;5024070;28;20044;-81
2023/12/15 00:44:09;;;;;;;80.30;28.88;;;;;;;;;;5029423;28;20446;-79
2023/12/15 00:46:35;;;;;;;76.35;26.38;;;;;;;;;;5046549;28;20044;-82
2023/12/15 00:49:01;;;;;;;79.30;27.20;;;;;;;;;;5046189;28;20098;-82
2023/12/15 00:51:27;;;;;;;71.82;27.73;;;;;;;;;;5032030;28;20075;-82
2023/12/15 00:53:53;;;;;;;78.78;27.30;;;;;;;;;;5050979;28;21281;-78
2023/12/15 00:56:19;;;;;;;77.07;29.20;;;;;;;;;;5015338;28;20053;-83
2023/12/15 00:58:45;;;;;;;73.45;27.88;;;;;;;;;;5045055;28;20045;-83
2023/12/15 01:01:11;;;;;;;80.93;29.08;;;;;;;;;;5042994;28;20159;-83
2023/12/15 01:03:37;;;;;;;74.38;27.10;;;;;;;;;;5033584;28;20044;-82
2023/12/15 01:06:04;;;;;;;74.57;26.77;;;;;;;;;;5029199;28;20049;-82
2023/12/15 01:08:30;;;;;;;83.93;29.42;;;;;;;;;;5012403;28;20067;-82
2023/12/15 01:10:56;;;;;;;79.05;29.20;;;;;;;;;;5031100;28;20045;-82
2023/12/15 01:13:22;;;;;;;71.15;27.25;;;;;;;;;;5049139;28;20055;-82
2023/12/15 01:15:48;;;;;;;75.82;28.23;;;;;;;;;;5051351;28;20028;-83
2023/12/15 01:18:14;;;;;;;69.78;28.05;;;;;;;;;;5032646;28;20408;-82
2023/12/15 01:20:40;;;;;;;75.07;27.05;;;;;;;;;;5050543;28;20048;-81
2023/12/15 01:23:06;;;;;;;80.18;29.67;;;;;;;;;;5048002;28;20371;-80
2023/12/15 01:25:32;;;;;;;76.03;28.70;;;;;;;;;;5051047;28;20082;-78
2023/12/15 01:27:58;;;;;;;59.65;24.85;;;;;;;;;;5043812;28;20404;-79
2023/12/15 01:30:24;;;;;;;85.03;29.88;;;;;;;;;;5060421;28;20443;-81
2023/12/15 01:32:50;;;;;;;84.03;29.38;;;;;;;;;;5015656;28;20041;-80
2023/12/15 01:35:16;;;;;;;80.47;27.83;;;;;;;;;;5035977;28;21425;-78
2023/12/15 01:37:42;;;;;;;85.32;30.85;;;;;;;;;;5036532;28;20048;-82
2023/12/15 01:40:09;;;;;;;88.38;31.63;;;;;;;;;;5024791;28;20048;-83
2023/12/15 01:42:35;;;;;;;83.45;29.85;;;;;;;;;;5044673;28;20086;-84
2023/12/15 01:45:01;;;;;;;85.72;29.13;;;;;;;;;;5032684;28;20056;-82
2023/12/15 01:47:27;;;;;;;100.40;33.40;;;;;;;;;;5030777;28;20543;-80
2023/12/15 01:49:53;;;;;;;88.07;30.77;;;;;;;;;;5045924;28;20496;-76
2023/12/15 01:52:19;;;;;;;80.88;27.50;;;;;;;;;;5028656;28;20045;-76
2023/12/15 01:54:45;;;;;;;91.65;31.95;;;;;;;;;;5048226;28;20032;-75
2023/12/15 01:57:12;;;;;;;90.60;32.70;;;;;;;;;;5043342;28;20373;-77
2023/12/15 01:59:42;;;;;;;88.80;31.60;;;;;;;;;;5031295;28;20067;-76
2023/12/15 02:02:08;;;;;;;93.53;30.85;;;;;;;;;;5014907;28;20496;-75
2023/12/15 02:04:34;;;;;;;87.97;32.33;;;;;;;;;;5045773;28;20185;-76
2023/12/15 02:07:00;;;;;;;82.85;31.00;;;;;;;;;;5028507;28;20072;-79
2023/12/15 02:09:26;;;;;;;85.82;28.25;;;;;;;;;;5040087;28;20044;-75
2023/12/15 02:11:52;;;;;;;93.55;31.15;;;;;;;;;;5042916;28;21681;-75
2023/12/15 02:14:18;;;;;;;92.60;30.15;;;;;;;;;;5015160;28;20136;-75
2023/12/15 02:16:44;;;;;;;104.05;32.63;;;;;;;;;;5014509;28;20036;-76
2023/12/15 02:19:10;;;;;;;99.05;30.38;;;;;;;;;;5031176;28;20039;-75
2023/12/15 02:21:36;;;;;;;99.15;32.95;;;;;;;;;;5031673;28;20366;-76
2023/12/15 02:24:03;;;;;;;100.97;32.72;;;;;;;;;;5048704;28;20492;-76
2023/12/15 02:26:29;;;;;;;103.05;32.75;;;;;;;;;;5046927;28;20056;-76
2023/12/15 02:28:55;;;;;;;109.00;34.15;;;;;;;;;;5018430;28;20068;-75
2023/12/15 02:31:22;;;;;;;99.60;31.17;;;;;;;;;;5028611;28;20049;-76
2023/12/15 02:33:48;;;;;;;102.88;32.22;;;;;;;;;;5046407;28;20440;-77
2023/12/15 02:36:18;;;;;;;103.82;31.85;;;;;;;;;;5043814;28;20079;-76
2023/12/15 02:38:44;;;;;;;106.85;33.67;;;;;;;;;;5051687;28;21398;-76
2023/12/15 02:41:11;;;;;;;108.03;32.45;;;;;;;;;;5039810;28;20048;-75
2023/12/15 02:43:37;;;;;;;116.53;34.42;;;;;;;;;;5028205;28;20057;-77
2023/12/15 02:46:03;;;;;;;103.78;30.75;;;;;;;;;;5058028;28;20033;-76
2023/12/15 02:48:29;;;;;;;90.40;29.48;;;;;;;;;;5041600;28;20049;-76
2023/12/15 02:50:55;;;;;;;112.72;32.40;;;;;;;;;;5031979;28;20122;-76
2023/12/15 02:53:21;;;;;;;110.03;30.63;;;;;;;;;;5050432;28;20457;-79
2023/12/15 02:55:48;;;;;;;100.38;31.73;;;;;;;;;;5033929;28;20064;-78
2023/12/15 02:58:14;;;;;;;112.63;31.75;;;;;;;;;;5062092;28;20041;-76
2023/12/15 03:00:40;;;;;;;95.82;29.63;;;;;;;;;;5051443;28;20036;-76
2023/12/15 03:03:06;;;;;;;110.88;32.42;;;;;;;;;;5043445;28;20501;-80
2023/12/15 03:05:32;;;;;;;109.75;33.40;;;;;;;;;;5062913;28;20040;-80
2023/12/15 03:07:58;;;;;;;111.82;31.30;;;;;;;;;;5035862;28;20036;-76
2023/12/15 03:10:24;;;;;;;109.50;30.75;;;;;;;;;;5055110;28;20048;-76
2023/12/15 03:12:50;;;;;;;104.80;31.25;;;;;;;;;;5037801;28;20722;-77
2023/12/15 03:15:16;;;;;;;111.22;32.05;;;;;;;;;;5051223;28;20084;-77
2023/12/15 03:17:42;;;;;;;99.20;29.33;;;;;;;;;;5050319;28;20040;-77
2023/12/15 03:20:08;;;;;;;94.53;29.65;;;;;;;;;;5064243;28;20127;-77
2023/12/15 03:22:34;;;;;;;107.50;31.42;;;;;;;;;;5033286;28;20403;-76
2023/12/15 03:25:00;;;;;;;96.82;31.13;;;;;;;;;;5083040;28;20064;-78
2023/12/15 03:27:26;;;;;;;99.00;32.08;;;;;;;;;;5050811;28;20047;-76
2023/12/15 03:29:53;;;;;;;109.90;32.72;;;;;;;;;;5049003;28;20044;-77
2023/12/15 03:32:19;;;;;;;97.70;30.77;;;;;;;;;;5062607;28;20089;-77
2023/12/15 03:34:48;;;;;;;91.03;30.17;;;;;;;;;;5031409;28;20395;-76
2023/12/15 03:37:14;;;;;;;91.20;28.20;;;;;;;;;;5043110;28;20462;-76
2023/12/15 03:39:40;;;;;;;94.90;31.33;;;;;;;;;;5051295;28;20138;-76
2023/12/15 03:42:07;;;;;;;98.68;28.30;;;;;;;;;;5062284;28;20427;-79
2023/12/15 03:44:33;;;;;;;98.20;28.98;;;;;;;;;;5045714;28;20044;-77
2023/12/15 03:47:00;;;;;;;83.40;28.00;;;;;;;;;;5046511;28;20041;-77
2023/12/15 03:49:26;;;;;;;97.25;29.65;;;;;;;;;;5053318;28;20032;-78
2023/12/15 03:51:52;;;;;;;109.00;30.23;;;;;;;;;;5037135;28;20048;-77
2023/12/15 03:54:18;;;;;;;107.85;30.42;;;;;;;;;;5050205;28;20419;-77
2023/12/15 03:56:44;;;;;;;85.47;27.65;;;;;;;;;;5043631;28;20153;-76
2023/12/15 03:59:10;;;;;;;80.32;26.60;;;;;;;;;;5049841;28;20041;-77
2023/12/15 04:01:36;;;;;;;83.38;29.13;;;;;;;;;;5078701;28;20163;-76
2023/12/15 04:04:02;;;;;;;93.40;28.85;;;;;;;;;;5033186;28;20052;-76
2023/12/15 04:06:28;;;;;;;85.38;29.63;;;;;;;;;;5030332;28;20040;-77
2023/12/15 04:08:55;;;;;;;79.85;26.40;;;;;;;;;;5061428;28;20068;-76
2023/12/15 04:11:22;;;;;;;86.47;26.90;;;;;;;;;;5032761;28;20152;-76
2023/12/15 04:13:48;;;;;;;73.05;24.63;;;;;;;;;;5055700;28;20051;-76
2023/12/15 04:16:14;;;;;;;94.03;27.67;;;;;;;;;;5031968;28;20049;-79
2023/12/15 04:18:40;;;;;;;81.97;26.98;;;;;;;;;;5046029;28;20411;-76
2023/12/15 04:21:07;;;;;;;94.20;27.45;;;;;;;;;;5052743;28;20108;-78
2023/12/15 04:23:33;;;;;;;70.95;25.45;;;;;;;;;;5068376;28;20127;-76
2023/12/15 04:25:59;;;;;;;85.53;27.00;;;;;;;;;;5049645;28;20047;-77
2023/12/15 04:28:25;;;;;;;74.03;25.65;;;;;;;;;;5066698;28;20127;-77
2023/12/15 04:30:54;;;;;;;76.07;25.75;;;;;;;;;;5050822;28;20043;-76
2023/12/15 04:33:20;;;;;;;81.28;27.42;;;;;;;;;;5038186;28;20135;-76
2023/12/15 04:35:46;;;;;;;76.18;24.98;;;;;;;;;;5050819;28;20047;-78
2023/12/15 04:38:12;;;;;;;75.25;24.95;;;;;;;;;;5033388;28;20047;-76
2023/12/15 04:40:39;;;;;;;78.88;25.88;;;;;;;;;;5078678;28;20072;-76
2023/12/15 04:43:05;;;;;;;70.10;26.17;;;;;;;;;;5035929;28;20043;-76
2023/12/15 04:45:31;;;;;;;84.28;27.90;;;;;;;;;;5052422;28;20048;-77
2023/12/15 04:47:57;;;;;;;82.18;27.95;;;;;;;;;;5049277;28;20127;-75
2023/12/15 04:50:23;;;;;;;75.40;26.50;;;;;;;;;;5050846;28;20044;-78
2023/12/15 04:52:49;;;;;;;80.88;26.83;;;;;;;;;;5063902;28;20041;-76
2023/12/15 04:55:15;;;;;;;77.82;27.15;;;;;;;;;;5064716;28;20119;-76
2023/12/15 04:57:41;;;;;;;75.72;26.75;;;;;;;;;;5053591;28;20527;-77
2023/12/15 05:00:08;;;;;;;67.70;26.33;;;;;;;;;;5046565;28;20040;-79
2023/12/15 05:02:34;;;;;;;67.53;24.80;;;;;;;;;;5065331;28;20079;-76
2023/12/15 05:05:00;;;;;;;66.80;27.13;;;;;;;;;;5050757;28;20792;-77
2023/12/15 05:07:26;;;;;;;68.15;25.52;;;;;;;;;;5047057;28;20067;-76
2023/12/15 05:09:52;;;;;;;71.43;27.33;;;;;;;;;;5031988;28;20044;-77
2023/12/15 05:12:19;;;;;;;78.90;26.13;;;;;;;;;;5030713;28;20044;-76
2023/12/15 05:14:45;;;;;;;69.38;26.25;;;;;;;;;;5058083;28;20033;-77
2023/12/15 05:17:11;;;;;;;63.42;26.38;;;;;;;;;;5044124;28;20051;-78
2023/12/15 05:19:37;;;;;;;79.18;25.65;;;;;;;;;;5015282;28;20491;-84
2023/12/15 05:22:03;;;;;;;74.57;25.67;;;;;;;;;;5064303;28;20243;-85
2023/12/15 05:24:32;;;;;;;63.53;24.83;;;;;;;;;;5061329;28;20041;-84
2023/12/15 05:26:58;;;;;;;70.57;26.77;;;;;;;;;;5058932;28;20144;-82
2023/12/15 05:29:24;;;;;;;78.05;25.92;;;;;;;;;;5047251;28;20075;-84
2023/12/15 05:31:50;;;;;;;56.33;22.83;;;;;;;;;;5059455;28;20530;-85
2023/12/15 05:34:16;;;;;;;68.57;24.45;;;;;;;;;;5073243;28;20040;-85
2023/12/15 05:36:43;;;;;;;72.72;25.80;;;;;;;;;;5050038;28;20036;-83
2023/12/15 05:39:09;;;;;;;67.18;22.58;;;;;;;;;;5030360;28;20044;-78
2023/12/15 05:41:35;;;;;;;72.88;22.63;;;;;;;;;;5044199;28;20047;-84
2023/12/15 05:44:01;;;;;;;70.00;23.92;;;;;;;;;;5027698;28;20128;-84
2023/12/15 05:46:27;;;;;;;67.90;23.83;;;;;;;;;;5080242;28;20037;-84
2023/12/15 05:48:53;;;;;;;68.97;23.23;;;;;;;;;;5061593;28;20040;-85
2023/12/15 05:51:19;;;;;;;65.50;22.88;;;;;;;;;;5024923;28;20155;-86
2023/12/15 05:53:45;;;;;;;76.15;22.70;;;;;;;;;;5058771;28;20048;-85
2023/12/15 05:56:11;;;;;;;60.47;22.08;;;;;;;;;;5048245;28;20153;-82
2023/12/15 05:58:37;;;;;;;75.80;22.40;;;;;;;;;;5080843;28;20028;-83
2023/12/15 06:01:03;;;;;;;67.85;22.92;;;;;;;;;;5045464;28;20041;-84
2023/12/15 06:03:30;;;;;;;66.28;21.15;;;;;;;;;;5084144;28;20048;-85
2023/12/15 06:05:56;;;;;;;56.15;20.17;;;;;;;;;;5060366;28;20572;-84
2023/12/15 06:08:22;;;;;;;67.90;21.65;;;;;;;;;;5066132;28;20044;-83
2023/12/15 06:10:49;;;;;;;73.75;20.17;;;;;;;;;;5040641;28;20046;-82
2023/12/15 06:13:15;;;;;;;62.72;22.40;;;;;;;;;;5055466;28;20033;-86
2023/12/15 06:15:41;;;;;;;54.70;19.45;;;;;;;;;;5042937;28;20526;-83
2023/12/15 06:18:07;;;;;;;56.08;19.77;;;;;;;;;;5040542;28;20051;-84
2023/12/15 06:20:33;;;;;;;66.70;19.58;;;;;;;;;;5054980;28;20040;-82
2023/12/15 06:23:00;;;;;;;62.05;19.00;;;;;;;;;;5065178;28;20072;-83
2023/12/15 06:25:26;;;;;;;64.03;19.05;;;;;;;;;;5067137;28;20032;-82
2023/12/15 06:27:52;;;;;;;54.33;20.25;;;;;;;;;;5036205;28;20139;-82
2023/12/15 06:30:18;;;;;;;63.50;17.45;;;;;;;;;;5055125;28;20039;-83
2023/12/15 06:32:44;;;;;;;53.90;18.10;;;;;;;;;;5044487;28;20557;-84
2023/12/15 06:35:10;;;;;;;52.85;18.02;;;;;;;;;;5055677;28;20120;-86
2023/12/15 06:37:36;;;;;;;56.05;15.95;;;;;;;;;;5040807;28;20095;-82
2023/12/15 06:40:03;;;;;;;52.72;16.80;;;;;;;;;;5059782;28;20043;-80
2023/12/15 06:42:29;;;;;;;60.97;16.63;;;;;;;;;;5058900;28;20044;-81
2023/12/15 06:44:56;;;;;;;44.33;14.38;;;;;;;;;;5050051;28;20055;-85
2023/12/15 06:47:22;;;;;;;57.78;16.00;;;;;;;;;;5050900;28;20044;-79
2023/12/15 06:49:48;;;;;;;59.17;17.73;;;;;;;;;;5043490;28;20055;-85
2023/12/15 06:52:15;;;;;;;45.53;14.55;;;;;;;;;;5053977;28;20050;-85
2023/12/15 06:54:41;;;;;;;62.42;16.30;;;;;;;;;;5055026;28;20045;-83
2023/12/15 06:57:07;;;;;;;65.18;18.40;;;;;;;;;;5050496;28;20599;-85
2023/12/15 06:59:33;;;;;;;65.88;17.25;;;;;;;;;;5065721;28;20055;-84
2023/12/15 07:01:59;;;;;;;50.83;16.27;;;;;;;;;;5062804;28;20056;-84
2023/12/15 07:04:25;;;;;;;50.55;15.13;;;;;;;;;;5051448;28;20496;-83
2023/12/15 07:06:52;;;;;;;52.45;14.63;;;;;;;;;;5055864;28;20102;-81
2023/12/15 07:09:19;;;;;;;57.00;16.23;;;;;;;;;;5050187;28;20102;-83
2023/12/15 07:11:45;;;;;;;65.90;15.77;;;;;;;;;;5034187;28;20117;-85
2023/12/15 07:14:11;;;;;;;50.00;13.63;;;;;;;;;;5063276;28;20036;-84
2023/12/15 07:16:37;;;;;;;46.30;14.75;;;;;;;;;;5053091;28;20044;-85
2023/12/15 07:19:03;;;;;;;53.40;13.75;;;;;;;;;;5045490;28;20128;-84
2023/12/15 07:21:29;;;;;;;61.88;16.88;;;;;;;;;;5046105;28;20123;-82
2023/12/15 07:23:55;;;;;;;53.85;14.50;;;;;;;;;;5053240;28;20040;-83
2023/12/15 07:26:22;;;;;;;55.45;14.60;;;;;;;;;;5048323;28;20047;-85
2023/12/15 07:28:48;;;;;;;55.80;15.05;;;;;;;;;;5074080;28;20408;-84
2023/12/15 07:31:18;;;;;;;54.72;13.13;;;;;;;;;;5079046;28;20041;-85
2023/12/15 07:33:44;;;;;;;54.33;15.30;;;;;;;;;;5083261;28;20475;-84
2023/12/15 07:36:10;;;;;;;56.45;13.30;;;;;;;;;;5057582;28;20042;-86
2023/12/15 07:38:36;;;;;;;61.65;14.13;;;;;;;;;;5053285;28;20045;-86
2023/12/15 07:41:02;;;;;;;58.40;13.68;;;;;;;;;;5049948;28;20036;-85
2023/12/15 07:43:28;;;;;;;54.25;12.63;;;;;;;;;;5051143;28;20036;-84
2023/12/15 07:45:55;;;;;;;47.45;13.20;;;;;;;;;;5053376;28;20034;-82
2023/12/15 07:48:21;;;;;;;57.58;13.48;;;;;;;;;;5049392;28;20048;-86
2023/12/15 07:50:47;;;;;;;53.10;11.85;;;;;;;;;;5032993;28;20468;-83
2023/12/15 07:53:14;;;;;;;55.33;12.77;;;;;;;;;;5067623;28;20056;-84
2023/12/15 07:55:40;;;;;;;54.95;12.30;;;;;;;;;;5035001;28;20399;-84
2023/12/15 07:58:09;;;;;;;65.18;15.32;;;;;;;;;;5037043;28;20048;-81
2023/12/15 08:00:36;;;;;;;52.13;13.60;;;;;;;;;;5067061;28;20048;-80
2023/12/15 08:03:03;;;;;;;57.63;14.77;;;;;;;;;;5040500;28;20036;-82
2023/12/15 08:05:29;;;;;;;63.97;12.32;;;;;;;;;;5045916;28;20068;-84
2023/12/15 08:07:55;;;;;;;51.80;11.90;;;;;;;;;;5055835;28;20044;-83
2023/12/15 08:10:25;;;;;;;53.85;12.63;;;;;;;;;;5055372;28;20037;-83
2023/12/15 08:12:51;;;;;;;48.13;11.48;;;;;;;;;;5053150;28;20380;-83
2023/12/15 08:15:17;;;;;;;70.03;14.73;;;;;;;;;;5051147;28;20140;-84
2023/12/15 08:17:43;;;;;;;62.75;11.48;;;;;;;;;;5038574;28;20037;-84
2023/12/15 08:20:10;;;;;;;51.05;11.68;;;;;;;;;;5039962;28;20036;-84
2023/12/15 08:22:36;;;;;;;56.30;10.77;;;;;;;;;;5079974;28;20045;-85
2023/12/15 08:25:02;;;;;;;57.40;9.93;;;;;;;;;;5060199;28;20041;-84
2023/12/15 08:27:28;;;;;;;48.22;10.43;;;;;;;;;;5063395;28;20056;-85
2023/12/15 08:29:57;;;;;;;59.47;11.57;;;;;;;;;;5064601;28;20036;-84
2023/12/15 08:32:23;;;;;;;50.85;10.30;;;;;;;;;;5064670;28;20051;-85
2023/12/15 08:34:49;;;;;;;44.53;10.43;;;;;;;;;;5018474;28;20400;-84
2023/12/15 08:37:15;;;;;;;45.97;9.82;;;;;;;;;;5079011;28;20499;-85
2023/12/15 08:39:42;;;;;;;48.05;10.00;;;;;;;;;;5050116;28;20480;-84
2023/12/15 08:42:08;;;;;;;55.13;9.90;;;;;;;;;;5056212;28;20040;-85
2023/12/15 08:44:34;;;;;;;44.33;9.63;;;;;;;;;;5073205;28;20063;-84
2023/12/15 08:47:00;;;;;;;53.38;9.52;;;;;;;;;;5067195;28;20040;-83
2023/12/15 08:49:27;;;;;;;46.50;10.88;;;;;;;;;;5039755;28;20475;-83
2023/12/15 08:51:53;;;;;;;53.70;9.52;;;;;;;;;;5050902;28;20410;-84
2023/12/15 08:54:19;;;;;;;38.42;10.13;;;;;;;;;;5063580;28;20702;-84
2023/12/15 08:56:45;;;;;;;56.63;9.10;;;;;;;;;;5028786;28;20057;-83
2023/12/15 08:59:11;;;;;;;50.13;9.30;;;;;;;;;;5069168;28;20415;-84
2023/12/15 09:01:37;;;;;;;49.08;8.43;;;;;;;;;;5019834;28;20115;-83
2023/12/15 09:04:03;;;;;;;56.35;9.73;;;;;;;;;;5030413;28;20151;-84
2023/12/15 09:06:30;;;;;;;53.80;8.20;;;;;;;;;;5082060;28;20415;-84
2023/12/15 09:08:56;;;;;;;46.42;8.93;;;;;;;;;;5054892;28;20041;-84
2023/12/15 09:11:22;;;;;;;50.70;9.45;;;;;;;;;;5055789;28;20079;-84
2023/12/15 09:13:48;;;;;;;48.05;8.52;;;;;;;;;;5083302;28;20036;-84
2023/12/15 09:16:14;;;;;;;54.78;8.52;;;;;;;;;;5069484;28;20075;-83
2023/12/15 09:18:40;;;;;;;50.67;8.38;;;;;;;;;;5056237;28;20079;-83
2023/12/15 09:21:07;;;;;;;56.95;8.45;;;;;;;;;;5083856;28;20033;-83
2023/12/15 09:23:33;;;;;;;51.47;9.38;;;;;;;;;;5033876;28;20558;-83
2023/12/15 09:26:00;;;;;;;42.50;8.13;;;;;;;;;;5070353;28;20114;-83
2023/12/15 09:28:27;;;;;;;45.72;7.45;;;;;;;;;;5051915;28;20047;-84
2023/12/15 09:30:53;;;;;;;42.40;7.35;;;;;;;;;;5048139;28;20125;-84
2023/12/15 09:33:19;;;;;;;41.80;7.10;;;;;;;;;;5064283;28;20037;-84
2023/12/15 09:35:45;;;;;;;49.30;7.13;;;;;;;;;;5051125;28;20132;-84
2023/12/15 09:38:11;;;;;;;50.53;8.80;;;;;;;;;;5087905;28;20041;-84
2023/12/15 09:40:37;;;;;;;46.95;7.13;;;;;;;;;;5052084;28;20649;-83
2023/12/15 09:43:04;;;;;;;40.13;7.68;;;;;;;;;;5057387;28;20473;-84
2023/12/15 09:45:30;;;;;;;52.63;8.63;;;;;;;;;;5051761;28;20064;-84
2023/12/15 09:47:57;;;;;;;46.63;7.32;;;;;;;;;;5059839;28;20075;-84
2023/12/15 09:50:25;;;;;;;35.13;7.25;;;;;;;;;;5068351;28;20040;-84
2023/12/15 09:52:51;;;;;;;44.33;7.03;;;;;;;;;;5067208;28;20052;-84
2023/12/15 09:55:19;;;;;;;41.58;7.47;;;;;;;;;;5056277;28;20598;-83
2023/12/15 09:57:45;;;;;;;35.92;6.28;;;;;;;;;;5037642;28;20662;-83
2023/12/15 10:00:12;;;;;;;50.47;7.18;;;;;;;;;;5043319;28;20405;-85
2023/12/15 10:02:38;;;;;;;45.42;8.13;;;;;;;;;;5058405;28;20470;-86
2023/12/15 10:05:04;;;;;;;37.88;7.65;;;;;;;;;;5043958;28;20040;-87
2023/12/15 10:07:30;;;;;;;48.38;6.75;;;;;;;;;;5044328;28;20073;-87
2023/12/15 10:09:57;;;;;;;40.53;6.88;;;;;;;;;;5033889;28;20071;-87
2023/12/15 10:12:23;;;;;;;44.63;6.95;;;;;;;;;;5032845;28;20045;-86
2023/12/15 10:14:49;;;;;;;37.47;6.95;;;;;;;;;;5061663;28;20045;-86
2023/12/15 10:17:15;;;;;;;31.90;7.38;;;;;;;;;;5049608;28;20577;-86
2023/12/15 10:19:41;;;;;;;50.20;8.27;;;;;;;;;;5061535;28;20037;-86
2023/12/15 10:22:07;;;;;;;48.78;8.10;;;;;;;;;;5040975;28;20071;-85
2023/12/15 10:24:34;;;;;;;42.80;7.40;;;;;;;;;;5030033;28;20040;-86
2023/12/15 10:27:02;;;;;;;36.20;6.20;;;;;;;;;;5049008;28;20079;-87
2023/12/15 10:29:28;;;;;;;51.55;7.22;;;;;;;;;;5042188;28;20183;-86
2023/12/15 10:31:54;;;;;;;37.85;6.40;;;;;;;;;;5049389;28;20033;-84
2023/12/15 10:34:25;;;;;;;44.45;8.57;;;;;;;;;;5053118;28;20063;-84
2023/12/15 10:36:51;;;;;;;41.30;7.57;;;;;;;;;;5030924;28;20045;-85
2023/12/15 10:39:18;;;;;;;34.25;6.90;;;;;;;;;;5048052;28;20480;-86
2023/12/15 10:41:45;;;;;;;40.30;6.47;;;;;;;;;;5051678;28;20044;-86
2023/12/15 10:44:15;;;;;;;49.42;6.90;;;;;;;;;;5049229;28;20488;-85
2023/12/15 10:46:42;;;;;;;44.75;6.72;;;;;;;;;;5020588;28;20500;-85
2023/12/15 10:49:09;;;;;;;33.05;5.65;;;;;;;;;;5049698;28;20056;-85
2023/12/15 10:51:38;;;;;;;31.20;6.07;;;;;;;;;;5066966;28;20048;-86
2023/12/15 10:54:05;;;;;;;39.25;7.75;;;;;;;;;;5046267;28;20057;-85
2023/12/15 10:56:32;;;;;;;35.08;6.28;;;;;;;;;;5052187;28;20053;-85
2023/12/15 10:59:01;;;;;;;32.00;6.60;;;;;;;;;;5053136;28;20037;-86
2023/12/15 11:01:28;;;;;;;35.47;5.80;;;;;;;;;;5079544;28;20040;-86
2023/12/15 11:03:54;;;;;;;36.17;8.05;;;;;;;;;;5081198;28;20087;-86
2023/12/15 11:06:33;;;;;;;43.28;6.65;;;;;;;;;;5081739;28;21691;-86
2023/12/15 11:09:00;;;;;;;35.03;6.65;;;;;;;;;;5063231;28;20160;-90
2023/12/15 11:11:29;;;;;;;37.20;8.27;;;;;;;;;;5046728;28;20049;-87
2023/12/15 11:14:01;;;;;;;32.22;6.57;;;;;;;;;;5068553;28;20033;-91
2023/12/15 11:16:30;;;;;;;44.78;8.88;;;;;;;;;;5087939;28;20583;-90
2023/12/15 11:18:57;;;;;;;51.78;6.68;;;;;;;;;;5048277;28;20414;-92
2023/12/15 11:21:23;;;;;;;35.10;6.68;;;;;;;;;;5083929;28;20404;-87
2023/12/15 11:23:49;;;;;;;31.35;5.43;;;;;;;;;;5048439;28;20044;-90
2023/12/15 11:26:25;;;;;;;36.45;6.10;;;;;;;;;;5053908;28;20048;-92
2023/12/15 11:28:51;;;;;;;42.90;6.07;;;;;;;;;;5045595;28;20036;-87
2023/12/15 11:31:23;;;;;;;37.88;6.30;;;;;;;;;;5055635;28;20100;-86
2023/12/15 11:33:52;;;;;;;38.17;7.68;;;;;;;;;;5047603;28;20076;-91
2023/12/15 11:36:18;;;;;;;32.15;5.70;;;;;;;;;;5036351;28;20053;-93
2023/12/15 11:38:48;;;;;;;35.05;5.38;;;;;;;;;;5046857;28;20092;-91
2023/12/15 11:41:18;;;;;;;32.38;5.97;;;;;;;;;;5033828;28;20076;-88
2023/12/15 11:43:44;;;;;;;28.27;5.70;;;;;;;;;;5063717;28;20060;-85
2023/12/15 11:46:11;;;;;;;31.23;6.68;;;;;;;;;;5048160;28;20106;-91
2023/12/15 11:48:37;;;;;;;35.42;6.35;;;;;;;;;;5048895;28;20086;-92
2023/12/15 11:51:03;;;;;;;32.53;5.57;;;;;;;;;;5050473;28;20046;-91
2023/12/15 11:53:32;;;;;;;37.72;6.93;;;;;;;;;;5016799;28;20047;-87
2023/12/15 11:56:01;;;;;;;29.00;5.78;;;;;;;;;;5035210;28;20053;-92
2023/12/15 11:58:27;;;;;;;39.53;5.53;;;;;;;;;;5043957;28;20041;-91
2023/12/15 12:00:53;;;;;;;33.25;6.60;;;;;;;;;;5050870;28;20130;-89
2023/12/15 12:03:20;;;;;;;35.33;4.60;;;;;;;;;;5048744;28;20059;-92
2023/12/15 12:05:47;;;;;;;35.45;6.28;;;;;;;;;;5054638;28;20488;-92
2023/12/15 12:08:14;;;;;;;29.90;5.22;;;;;;;;;;5041420;28;20045;-92
2023/12/15 12:10:40;;;;;;;30.40;6.53;;;;;;;;;;5045796;28;22252;-93
2023/12/15 12:13:07;;;;;;;36.55;5.22;;;;;;;;;;5028365;28;20034;-90
2023/12/15 12:15:33;;;;;;;28.92;5.20;;;;;;;;;;5051542;28;20039;-91
2023/12/15 12:17:59;;;;;;;33.55;6.70;;;;;;;;;;5042362;28;20069;-89
2023/12/15 12:20:29;;;;;;;34.10;6.90;;;;;;;;;;5031261;28;20148;-80
2023/12/15 12:22:56;;;;;;;28.58;5.38;;;;;;;;;;5050610;28;20040;-80
2023/12/15 12:25:22;;;;;;;28.33;6.32;;;;;;;;;;5038455;28;20112;-80
2023/12/15 12:27:51;;;;;;;26.88;5.82;;;;;;;;;;5039961;28;20041;-80
2023/12/15 12:30:18;;;;;;;28.88;5.88;;;;;;;;;;5039732;28;20128;-80
2023/12/15 12:32:44;;;;;;;26.88;5.40;;;;;;;;;;5045566;28;20040;-80
2023/12/15 12:35:10;;;;;;;43.63;5.75;;;;;;;;;;5060450;28;20512;-81
2023/12/15 12:37:37;;;;;;;31.80;5.93;;;;;;;;;;5029981;28;20037;-79
2023/12/15 12:40:04;;;;;;;26.38;5.32;;;;;;;;;;5046715;28;20037;-80
2023/12/15 12:42:30;;;;;;;30.17;5.82;;;;;;;;;;5048247;28;20047;-81
2023/12/15 12:44:57;;;;;;;29.25;6.25;;;;;;;;;;5055114;28;20102;-79
2023/12/15 12:47:23;;;;;;;22.08;4.45;;;;;;;;;;5045658;28;20041;-80
2023/12/15 12:49:50;;;;;;;34.90;6.32;;;;;;;;;;5048037;28;20588;-80
2023/12/15 12:52:17;;;;;;;29.77;4.80;;;;;;;;;;5060717;28;20033;-79
2023/12/15 12:54:43;;;;;;;27.85;5.88;;;;;;;;;;5044003;28;20045;-81
2023/12/15 12:57:09;;;;;;;25.05;4.97;;;;;;;;;;5044715;28;20083;-79
2023/12/15 12:59:43;;;;;;;40.58;5.72;;;;;;;;;;5050194;28;20097;-79
2023/12/15 13:02:09;;;;;;;41.20;6.53;;;;;;;;;;5063638;28;20105;-79
2023/12/15 13:04:35;;;;;;;31.38;5.03;;;;;;;;;;5050290;28;20080;-79
2023/12/15 13:07:01;;;;;;;41.88;5.75;;;;;;;;;;5036270;28;20091;-80
2023/12/15 13:09:28;;;;;;;28.75;5.20;;;;;;;;;;5038184;28;20037;-82
2023/12/15 13:11:54;;;;;;;36.80;6.07;;;;;;;;;;5050122;28;20041;-79
2023/12/15 13:14:20;;;;;;;38.72;6.13;;;;;;;;;;5045438;28;20049;-79
2023/12/15 13:16:46;;;;;;;37.65;5.82;;;;;;;;;;5016140;28;20112;-79
2023/12/15 13:19:12;;;;;;;31.85;5.45;;;;;;;;;;5052287;28;20044;-80
2023/12/15 13:21:38;;;;;;;28.90;5.70;;;;;;;;;;5051414;28;20056;-79
2023/12/15 13:24:08;;;;;;;49.15;6.95;;;;;;;;;;5047137;28;20198;-81
2023/12/15 13:26:34;;;;;;;31.45;5.38;;;;;;;;;;5029118;28;20053;-81
2023/12/15 13:29:03;;;;;;;33.38;5.97;;;;;;;;;;5037103;28;20044;-90
2023/12/15 13:31:29;;;;;;;39.08;6.10;;;;;;;;;;5035315;28;20075;-91
2023/12/15 13:33:56;;;;;;;26.60;6.13;;;;;;;;;;5048556;28;20124;-89
2023/12/15 13:36:22;;;;;;;37.83;6.22;;;;;;;;;;5046436;28;20097;-89
2023/12/15 13:38:48;;;;;;;38.55;5.65;;;;;;;;;;5062516;28;20592;-90
2023/12/15 13:41:15;;;;;;;34.80;6.53;;;;;;;;;;5046947;28;20091;-89
2023/12/15 13:43:42;;;;;;;31.30;6.15;;;;;;;;;;5074171;28;20527;-87
2023/12/15 13:46:08;;;;;;;33.38;5.60;;;;;;;;;;5064273;28;20044;-90
2023/12/15 13:48:35;;;;;;;32.63;5.95;;;;;;;;;;5065065;28;20399;-91
2023/12/15 13:51:01;;;;;;;29.88;5.18;;;;;;;;;;5044617;28;20045;-90
2023/12/15 13:53:27;;;;;;;35.88;7.10;;;;;;;;;;5058239;28;20045;-89
2023/12/15 13:55:53;;;;;;;32.05;5.68;;;;;;;;;;5035031;28;20115;-90
2023/12/15 13:58:20;;;;;;;35.75;6.32;;;;;;;;;;5051231;28;20057;-84
2023/12/15 14:00:46;;;;;;;30.88;5.57;;;;;;;;;;5050045;28;20101;-82
2023/12/15 14:03:13;;;;;;;31.45;5.75;;;;;;;;;;5046071;28;20033;-83
2023/12/15 14:05:39;;;;;;;40.60;5.75;;;;;;;;;;5078994;28;20039;-83
2023/12/15 14:08:05;;;;;;;26.42;5.10;;;;;;;;;;5016747;28;20037;-80
2023/12/15 14:10:31;;;;;;;30.65;5.63;;;;;;;;;;5085728;28;20075;-81
2023/12/15 14:12:57;;;;;;;36.35;6.95;;;;;;;;;;5032840;28;20052;-81
2023/12/15 14:15:23;;;;;;;34.08;5.00;;;;;;;;;;5032268;28;20094;-81